createdAt,value
2023-02-18T00:01:16.489Z,4.21
2023-02-18T00:03:43.668Z,4.10
2023-02-18T00:06:19.389Z,4.10
2023-02-18T00:08:46.843Z,4.03
2023-02-18T00:11:14.223Z,4.04
2023-02-18T00:13:40.998Z,3.98
2023-02-18T00:16:11.625Z,3.89
2023-02-18T00:18:39.685Z,3.91
2023-02-18T00:21:08.255Z,3.92
2023-02-18T00:23:35.758Z,3.92
2023-02-18T00:26:08.129Z,3.95
2023-02-18T00:28:35.694Z,4.00
2023-02-18T00:31:14.991Z,4.02
2023-02-18T00:33:42.494Z,3.98
2023-02-18T00:36:13.041Z,3.83
2023-02-18T00:38:43.557Z,3.96
2023-02-18T00:41:11.255Z,4.00
2023-02-18T00:43:37.976Z,4.08
2023-02-18T00:46:04.963Z,4.12
2023-02-18T00:48:32.693Z,4.07
2023-02-18T00:51:00.918Z,3.91
2023-02-18T00:53:30.854Z,3.89
2023-02-18T00:55:57.784Z,3.98
2023-02-18T00:58:25.330Z,3.95
2023-02-18T01:00:52.180Z,3.99
2023-02-18T01:03:19.352Z,4.11
2023-02-18T01:05:46.019Z,4.07
2023-02-18T01:08:13.106Z,4.07
2023-02-18T01:10:45.062Z,4.06
2023-02-18T01:13:12.693Z,4.00
2023-02-18T01:15:40.645Z,3.94
2023-02-18T01:18:08.614Z,4.03
2023-02-18T01:20:36.582Z,4.04
2023-02-18T01:23:03.970Z,4.04
2023-02-18T01:25:31.405Z,4.03
2023-02-18T01:27:58.188Z,3.90
2023-02-18T01:30:25.152Z,3.94
2023-02-18T01:32:51.975Z,3.78
2023-02-18T01:35:20.247Z,3.83
2023-02-18T01:37:48.182Z,3.77
2023-02-18T01:40:18.082Z,3.71
2023-02-18T01:42:44.906Z,3.70
2023-02-18T01:45:33.457Z,3.66
2023-02-18T01:48:10.184Z,3.68
2023-02-18T01:50:41.895Z,3.69
2023-02-18T01:53:09.120Z,3.66
2023-02-18T01:55:38.291Z,3.63
2023-02-18T01:58:06.558Z,3.58
2023-02-18T02:00:33.676Z,3.57
2023-02-18T02:03:01.076Z,3.52
2023-02-18T02:05:31.932Z,3.46
2023-02-18T02:08:01.051Z,3.41
2023-02-18T02:10:42.234Z,3.41
2023-02-18T02:13:44.173Z,3.51
2023-02-18T02:16:30.099Z,3.53
2023-02-18T02:19:34.670Z,3.69
2023-02-18T02:22:34.674Z,3.73
2023-02-18T02:25:09.215Z,3.61
2023-02-18T02:27:44.950Z,3.59
2023-02-18T02:30:33.272Z,3.41
2023-02-18T02:33:42.034Z,3.37
2023-02-18T02:36:22.033Z,3.38
2023-02-18T02:38:55.513Z,3.42
2023-02-18T02:42:01.196Z,3.43
2023-02-18T02:44:29.402Z,3.34
2023-02-18T02:47:12.042Z,3.14
2023-02-18T02:50:13.837Z,3.22
2023-02-18T02:52:52.471Z,3.53
2023-02-18T02:55:20.210Z,3.53
2023-02-18T02:57:53.371Z,3.55
2023-02-18T03:00:44.608Z,3.40
2023-02-18T03:03:27.759Z,3.28
2023-02-18T03:05:54.571Z,3.25
2023-02-18T03:08:45.055Z,3.17
2023-02-18T03:11:17.867Z,3.17
2023-02-18T03:13:51.717Z,3.16
2023-02-18T03:16:30.927Z,3.15
2023-02-18T03:19:10.298Z,3.07
2023-02-18T03:21:57.085Z,2.99
2023-02-18T03:24:34.870Z,3.02
2023-02-18T03:27:10.358Z,3.05
2023-02-18T03:29:38.653Z,2.94
2023-02-18T03:32:08.142Z,2.91
2023-02-18T03:34:42.200Z,2.86
2023-02-18T03:37:11.091Z,2.89
2023-02-18T03:39:42.099Z,2.95
2023-02-18T03:42:09.109Z,3.00
2023-02-18T03:44:35.837Z,3.13
2023-02-18T03:47:03.195Z,3.08
2023-02-18T03:49:29.780Z,3.29
2023-02-18T03:51:56.462Z,3.30
2023-02-18T03:54:23.216Z,3.27
2023-02-18T03:56:50.014Z,3.28
2023-02-18T03:59:16.816Z,3.25
2023-02-18T04:01:43.554Z,3.14
2023-02-18T04:04:10.402Z,3.08
2023-02-18T04:06:37.324Z,3.02
2023-02-18T04:09:08.996Z,2.73
2023-02-18T04:11:37.956Z,2.83
2023-02-18T04:14:05.483Z,2.65
2023-02-18T04:16:32.612Z,2.63
2023-02-18T04:18:59.682Z,2.81
2023-02-18T04:21:26.635Z,2.73
2023-02-18T04:23:53.355Z,2.80
2023-02-18T04:26:20.089Z,2.79
2023-02-18T04:28:46.778Z,2.77
2023-02-18T04:31:13.628Z,2.72
2023-02-18T04:33:40.414Z,2.74
2023-02-18T04:36:08.155Z,2.76
2023-02-18T04:38:35.158Z,2.73
2023-02-18T04:41:02.295Z,2.80
2023-02-18T04:43:29.066Z,2.78
2023-02-18T04:45:55.800Z,2.86
2023-02-18T04:48:22.563Z,2.86
2023-02-18T04:50:49.339Z,2.98
2023-02-18T04:53:16.171Z,2.94
2023-02-18T04:55:42.950Z,2.97
2023-02-18T04:58:10.809Z,2.84
2023-02-18T05:00:37.865Z,2.80
2023-02-18T05:03:05.067Z,2.83
2023-02-18T05:05:32.476Z,2.75
2023-02-18T05:07:59.433Z,2.90
2023-02-18T05:10:26.846Z,2.99
2023-02-18T05:12:53.996Z,2.96
2023-02-18T05:15:21.346Z,2.83
2023-02-18T05:17:48.504Z,2.63
2023-02-18T05:20:15.318Z,2.63
2023-02-18T05:22:42.080Z,2.60
2023-02-18T05:25:08.917Z,2.52
2023-02-18T05:27:35.630Z,2.50
2023-02-18T05:30:02.429Z,2.46
2023-02-18T05:32:29.270Z,2.43
2023-02-18T05:34:55.990Z,2.46
2023-02-18T05:37:22.771Z,2.50
2023-02-18T05:39:49.541Z,2.49
2023-02-18T05:42:16.308Z,2.11
2023-02-18T05:44:43.062Z,2.28
2023-02-18T05:47:11.823Z,2.13
2023-02-18T05:49:40.449Z,2.13
2023-02-18T05:52:08.297Z,2.08
2023-02-18T05:54:36.509Z,2.24
2023-02-18T05:57:03.648Z,2.29
2023-02-18T05:59:31.011Z,2.26
2023-02-18T06:01:58.106Z,2.28
2023-02-18T06:04:24.865Z,2.26
2023-02-18T06:06:51.770Z,2.28
2023-02-18T06:09:18.626Z,2.32
2023-02-18T06:11:45.374Z,2.35
2023-02-18T06:14:12.088Z,2.21
2023-02-18T06:16:38.974Z,2.29
2023-02-18T06:19:05.692Z,2.36
2023-02-18T06:21:32.491Z,2.37
2023-02-18T06:23:59.257Z,2.37
2023-02-18T06:26:26.028Z,2.37
2023-02-18T06:28:52.822Z,2.32
2023-02-18T06:31:19.730Z,2.31
2023-02-18T06:33:46.750Z,2.29
2023-02-18T06:36:13.995Z,2.26
2023-02-18T06:38:42.034Z,2.28
2023-02-18T06:41:09.432Z,2.32
2023-02-18T06:43:36.480Z,2.34
2023-02-18T06:46:04.355Z,2.35
2023-02-18T06:48:31.688Z,2.29
2023-02-18T06:50:58.614Z,2.28
2023-02-18T06:53:25.455Z,2.32
2023-02-18T06:55:52.259Z,2.33
2023-02-18T06:58:19.011Z,2.36
2023-02-18T07:00:45.795Z,2.35
2023-02-18T07:03:14.480Z,2.38
2023-02-18T07:05:42.036Z,2.31
2023-02-18T07:08:09.078Z,2.41
2023-02-18T07:10:35.907Z,2.42
2023-02-18T07:13:02.637Z,2.49
2023-02-18T07:15:29.352Z,2.56
2023-02-18T07:17:56.115Z,2.52
2023-02-18T07:20:24.468Z,2.65
2023-02-18T07:22:51.437Z,2.58
2023-02-18T07:25:18.400Z,2.63
2023-02-18T07:27:45.286Z,2.55
2023-02-18T07:30:12.644Z,2.49
2023-02-18T07:32:39.270Z,2.68
2023-02-18T07:35:06.911Z,2.76
2023-02-18T07:37:33.746Z,2.81
2023-02-18T07:40:00.521Z,2.82
2023-02-18T07:42:27.253Z,2.73
2023-02-18T07:44:54.068Z,2.89
2023-02-18T07:47:20.841Z,3.05
2023-02-18T07:49:47.825Z,3.04
2023-02-18T07:52:15.870Z,3.16
2023-02-18T07:54:42.590Z,3.21
2023-02-18T07:57:09.630Z,3.27
2023-02-18T07:59:36.331Z,3.29
2023-02-18T08:02:05.355Z,3.27
2023-02-18T08:04:32.164Z,3.22
2023-02-18T08:06:59.045Z,3.35
2023-02-18T08:09:25.770Z,3.46
2023-02-18T08:11:52.552Z,3.41
2023-02-18T08:14:19.338Z,3.62
2023-02-18T08:16:46.267Z,3.71
2023-02-18T08:19:13.093Z,3.87
2023-02-18T08:21:39.814Z,4.00
2023-02-18T08:24:08.103Z,4.03
2023-02-18T08:26:35.127Z,4.13
2023-02-18T08:29:02.772Z,4.26
2023-02-18T08:31:31.323Z,4.43
2023-02-18T08:34:00.667Z,4.40
2023-02-18T08:36:28.095Z,4.42
2023-02-18T08:38:54.973Z,4.40
2023-02-18T08:41:23.315Z,4.47
2023-02-18T08:43:50.918Z,4.44
2023-02-18T08:46:27.234Z,4.52
2023-02-18T08:49:03.399Z,4.68
2023-02-18T08:51:32.173Z,4.68
2023-02-18T08:53:59.775Z,4.90
2023-02-18T08:56:27.369Z,5.14
2023-02-18T08:58:54.340Z,5.48
2023-02-18T09:01:21.109Z,5.74
2023-02-18T09:03:48.718Z,6.00
2023-02-18T09:06:15.829Z,6.22
2023-02-18T09:08:42.572Z,6.44
2023-02-18T09:11:11.215Z,6.79
2023-02-18T09:13:38.604Z,7.19
2023-02-18T09:16:14.449Z,7.64
2023-02-18T09:18:42.109Z,7.97
2023-02-18T09:21:10.299Z,8.30
2023-02-18T09:23:37.478Z,8.48
2023-02-18T09:26:06.724Z,8.51
2023-02-18T09:28:34.269Z,8.67
2023-02-18T09:31:10.022Z,8.80
2023-02-18T09:33:41.488Z,9.05
2023-02-18T09:36:08.756Z,9.11
2023-02-18T09:38:35.314Z,9.38
2023-02-18T09:41:07.706Z,9.74
2023-02-18T09:43:43.795Z,10.08
2023-02-18T09:46:23.490Z,10.42
2023-02-18T09:48:52.174Z,10.63
2023-02-18T09:51:19.958Z,10.77
2023-02-18T09:53:47.200Z,10.80
2023-02-18T09:56:15.252Z,10.96
2023-02-18T09:58:44.219Z,11.21
2023-02-18T10:01:16.511Z,11.77
2023-02-18T10:03:44.392Z,12.03
2023-02-18T10:06:33.105Z,12.44
2023-02-18T10:09:10.416Z,12.65
2023-02-18T10:11:43.027Z,12.62
2023-02-18T10:14:12.859Z,12.80
2023-02-18T10:16:39.795Z,12.77
2023-02-18T10:19:27.845Z,12.75
2023-02-18T10:21:55.763Z,12.52
2023-02-18T10:24:27.444Z,12.95
2023-02-18T10:26:55.604Z,12.98
2023-02-18T10:29:23.326Z,12.59
2023-02-18T10:31:57.572Z,12.36
2023-02-18T10:34:45.013Z,12.13
2023-02-18T10:37:11.634Z,12.05
2023-02-18T10:39:38.278Z,11.86
2023-02-18T10:42:23.505Z,11.72
2023-02-18T10:45:03.448Z,11.43
2023-02-18T10:47:42.974Z,11.38
2023-02-18T10:50:12.471Z,11.32
2023-02-18T10:52:49.794Z,11.18
2023-02-18T10:55:18.892Z,11.16
2023-02-18T10:57:49.775Z,11.09
2023-02-18T11:00:27.839Z,11.09
2023-02-18T11:03:39.231Z,11.12
2023-02-18T11:06:15.662Z,11.11
2023-02-18T11:08:45.526Z,10.99
2023-02-18T11:11:25.591Z,10.95
2023-02-18T11:13:57.793Z,11.38
2023-02-18T11:16:37.115Z,11.79
2023-02-18T11:19:04.538Z,12.09
2023-02-18T11:21:34.501Z,12.40
2023-02-18T11:24:16.084Z,12.51
2023-02-18T11:26:44.802Z,12.56
2023-02-18T11:29:21.854Z,12.36
2023-02-18T11:31:52.195Z,12.05
2023-02-18T11:34:22.894Z,11.91
2023-02-18T11:36:50.863Z,12.03
2023-02-18T11:39:22.165Z,11.99
2023-02-18T11:41:56.356Z,11.96
2023-02-18T11:44:59.004Z,12.01
2023-02-18T11:47:35.545Z,12.05
2023-02-18T11:50:17.281Z,12.01
2023-02-18T11:52:49.534Z,12.01
2023-02-18T11:55:22.892Z,11.84
2023-02-18T11:57:57.706Z,11.75
2023-02-18T12:00:36.325Z,11.87
2023-02-18T12:03:13.140Z,11.92
2023-02-18T12:05:40.799Z,11.78
2023-02-18T12:08:17.835Z,11.89
2023-02-18T12:10:54.064Z,11.88
2023-02-18T12:13:28.802Z,11.78
2023-02-18T12:15:58.304Z,11.93
2023-02-18T12:18:37.369Z,11.90
2023-02-18T12:21:23.777Z,11.88
2023-02-18T12:23:56.128Z,11.87
2023-02-18T12:26:29.049Z,11.79
2023-02-18T12:29:04.892Z,11.85
2023-02-18T12:31:59.505Z,11.83
2023-02-18T12:34:28.837Z,11.92
2023-02-18T12:37:22.066Z,11.93
2023-02-18T12:40:06.823Z,11.90
2023-02-18T12:42:48.044Z,11.88
2023-02-18T12:45:32.260Z,11.75
2023-02-18T12:48:34.102Z,11.71
2023-02-18T12:51:03.670Z,11.68
2023-02-18T12:53:50.254Z,11.72
2023-02-18T12:56:41.722Z,11.73
2023-02-18T12:59:36.135Z,11.80
2023-02-18T13:02:24.281Z,11.64
2023-02-18T13:05:12.853Z,11.59
2023-02-18T13:08:16.225Z,11.79
2023-02-18T13:11:14.541Z,11.78
2023-02-18T13:13:48.119Z,11.86
2023-02-18T13:16:19.826Z,11.91
2023-02-18T13:18:50.429Z,11.88
2023-02-18T13:21:18.352Z,11.67
2023-02-18T13:24:02.522Z,11.75
2023-02-18T13:26:34.365Z,11.73
2023-02-18T13:29:16.138Z,11.80
2023-02-18T13:31:50.955Z,11.79
2023-02-18T13:34:28.601Z,11.84
2023-02-18T13:37:31.197Z,11.90
2023-02-18T13:40:00.602Z,11.86
2023-02-18T13:42:30.135Z,11.76
2023-02-18T13:45:04.174Z,11.63
2023-02-18T13:47:41.717Z,11.59
2023-02-18T13:50:42.127Z,11.59
2023-02-18T13:53:11.527Z,11.61
2023-02-18T13:55:56.911Z,11.63
2023-02-18T13:58:44.536Z,11.59
2023-02-18T14:01:11.340Z,11.59
2023-02-18T14:03:44.208Z,11.53
2023-02-18T14:06:21.132Z,11.57
2023-02-18T14:08:48.880Z,11.61
2023-02-18T14:11:15.507Z,11.60
2023-02-18T14:14:13.878Z,11.49
2023-02-18T14:17:29.090Z,11.53
2023-02-18T14:20:01.514Z,11.51
2023-02-18T14:22:29.596Z,11.48
2023-02-18T14:25:22.385Z,11.50
2023-02-18T14:27:53.685Z,11.54
2023-02-18T14:30:29.219Z,11.51
2023-02-18T14:33:01.527Z,11.49
2023-02-18T14:35:43.691Z,11.46
2023-02-18T14:38:38.180Z,11.48
2023-02-18T14:41:20.229Z,11.45
2023-02-18T14:43:55.622Z,11.46
2023-02-18T14:46:49.554Z,11.39
2023-02-18T14:49:38.017Z,11.37
2023-02-18T14:52:10.719Z,11.33
2023-02-18T14:54:39.630Z,11.26
2023-02-18T14:57:15.941Z,11.20
2023-02-18T14:59:44.097Z,11.15
2023-02-18T15:02:27.603Z,11.08
2023-02-18T15:04:54.602Z,10.99
2023-02-18T15:07:22.656Z,10.98
2023-02-18T15:09:53.313Z,10.98
2023-02-18T15:12:25.652Z,10.96
2023-02-18T15:14:56.028Z,10.88
2023-02-18T15:17:30.002Z,10.85
2023-02-18T15:19:59.642Z,10.82
2023-02-18T15:22:29.900Z,10.78
2023-02-18T15:24:57.358Z,10.74
2023-02-18T15:27:34.306Z,10.73
2023-02-18T15:30:20.964Z,10.70
2023-02-18T15:32:52.940Z,10.65
2023-02-18T15:35:23.069Z,10.57
2023-02-18T15:37:55.532Z,10.48
2023-02-18T15:40:24.726Z,10.38
2023-02-18T15:42:56.250Z,10.26
2023-02-18T15:45:26.313Z,10.17
2023-02-18T15:47:56.021Z,10.11
2023-02-18T15:50:26.546Z,10.04
2023-02-18T15:52:55.343Z,9.89
2023-02-18T15:55:32.592Z,9.81
2023-02-18T15:58:23.895Z,9.79
2023-02-18T16:00:54.337Z,9.74
2023-02-18T16:03:25.334Z,9.67
2023-02-18T16:06:27.582Z,9.43
2023-02-18T16:09:06.700Z,9.31
2023-02-18T16:11:39.090Z,9.16
2023-02-18T16:14:08.838Z,9.12
2023-02-18T16:16:39.547Z,9.05
2023-02-18T16:19:06.371Z,8.91
2023-02-18T16:21:39.815Z,8.77
2023-02-18T16:24:41.007Z,8.61
2023-02-18T16:27:16.487Z,8.48
2023-02-18T16:29:44.561Z,8.39
2023-02-18T16:32:11.443Z,8.26
2023-02-18T16:34:38.323Z,8.25
2023-02-18T16:37:23.573Z,8.17
2023-02-18T16:39:52.095Z,8.06
2023-02-18T16:42:18.847Z,8.05
2023-02-18T16:44:46.794Z,8.05
2023-02-18T16:47:16.596Z,7.98
2023-02-18T16:49:46.655Z,7.92
2023-02-18T16:52:17.152Z,7.84
2023-02-18T16:54:44.040Z,7.73
2023-02-18T16:57:11.479Z,7.61
2023-02-18T16:59:38.198Z,7.52
2023-02-18T17:02:05.070Z,7.42
2023-02-18T17:04:31.837Z,7.35
2023-02-18T17:06:58.667Z,7.21
2023-02-18T17:09:27.436Z,7.18
2023-02-18T17:11:55.998Z,7.14
2023-02-18T17:14:23.352Z,6.98
2023-02-18T17:16:53.454Z,7.18
2023-02-18T17:19:20.526Z,7.18
2023-02-18T17:21:48.852Z,7.10
2023-02-18T17:24:20.808Z,7.00
2023-02-18T17:26:50.512Z,6.88
2023-02-18T17:29:17.723Z,6.85
2023-02-18T17:31:47.520Z,6.84
2023-02-18T17:34:19.388Z,6.80
2023-02-18T17:36:46.334Z,6.74
2023-02-18T17:39:16.156Z,6.62
2023-02-18T17:41:43.217Z,6.46
2023-02-18T17:44:29.223Z,6.30
2023-02-18T17:46:56.134Z,6.29
2023-02-18T17:49:23.230Z,6.30
2023-02-18T17:51:50.856Z,6.29
2023-02-18T17:54:25.245Z,6.25
2023-02-18T17:56:56.200Z,6.12
2023-02-18T17:59:24.443Z,6.08
2023-02-18T18:01:52.062Z,6.12
2023-02-18T18:04:19.732Z,6.18
2023-02-18T18:06:47.354Z,6.24
2023-02-18T18:09:14.375Z,6.24
2023-02-18T18:11:41.209Z,6.17
2023-02-18T18:14:09.400Z,6.07
2023-02-18T18:16:36.213Z,5.94
2023-02-18T18:19:02.974Z,5.79
2023-02-18T18:21:32.985Z,5.70
2023-02-18T18:23:59.836Z,5.61
2023-02-18T18:26:27.164Z,5.57
2023-02-18T18:28:53.833Z,5.50
2023-02-18T18:31:20.987Z,5.07
2023-02-18T18:33:52.933Z,4.75
2023-02-18T18:36:21.553Z,4.36
2023-02-18T18:38:49.427Z,4.11
2023-02-18T18:41:18.225Z,4.02
2023-02-18T18:43:45.150Z,4.11
2023-02-18T18:46:11.970Z,4.49
2023-02-18T18:48:39.518Z,4.64
2023-02-18T18:51:06.961Z,4.78
2023-02-18T18:53:35.782Z,4.81
2023-02-18T18:56:06.101Z,4.60
2023-02-18T18:58:33.521Z,4.64
2023-02-18T19:01:03.595Z,4.62
2023-02-18T19:03:31.278Z,4.33
2023-02-18T19:05:58.326Z,4.15
2023-02-18T19:08:25.618Z,4.13
2023-02-18T19:10:54.924Z,4.10
2023-02-18T19:13:24.525Z,3.98
2023-02-18T19:16:01.528Z,3.77
2023-02-18T19:18:28.971Z,3.61
2023-02-18T19:20:56.361Z,3.53
2023-02-18T19:23:23.315Z,3.60
2023-02-18T19:25:50.287Z,3.54
2023-02-18T19:28:18.402Z,3.37
2023-02-18T19:30:47.341Z,3.36
2023-02-18T19:33:15.314Z,3.26
2023-02-18T19:35:43.664Z,3.27
2023-02-18T19:38:12.596Z,3.21
2023-02-18T19:40:39.594Z,3.10
2023-02-18T19:43:07.186Z,3.01
2023-02-18T19:45:34.277Z,3.00
2023-02-18T19:48:01.892Z,2.82
2023-02-18T19:50:32.784Z,2.50
2023-02-18T19:53:00.111Z,2.48
2023-02-18T19:55:27.104Z,2.52
2023-02-18T19:57:53.870Z,2.50
2023-02-18T20:00:25.866Z,2.57
2023-02-18T20:02:52.637Z,2.56
2023-02-18T20:05:19.537Z,2.53
2023-02-18T20:07:47.046Z,2.51
2023-02-18T20:10:20.452Z,2.44
2023-02-18T20:12:53.044Z,2.33
2023-02-18T20:15:20.796Z,2.31
2023-02-18T20:17:49.001Z,2.17
2023-02-18T20:20:16.312Z,2.11
2023-02-18T20:22:43.232Z,2.14
2023-02-18T20:25:11.084Z,2.11
2023-02-18T20:27:47.880Z,2.17
2023-02-18T20:30:22.617Z,2.11
2023-02-18T20:32:50.146Z,2.15
2023-02-18T20:35:18.709Z,2.15
2023-02-18T20:37:46.490Z,2.20
2023-02-18T20:40:13.599Z,2.19
2023-02-18T20:42:42.265Z,2.22
2023-02-18T20:45:09.964Z,2.14
2023-02-18T20:47:37.172Z,2.24
2023-02-18T20:50:05.138Z,2.17
2023-02-18T20:52:34.554Z,1.88
2023-02-18T20:55:02.059Z,1.45
2023-02-18T20:57:29.488Z,1.63
2023-02-18T20:59:58.173Z,1.77
2023-02-18T21:02:24.904Z,1.66
2023-02-18T21:04:52.663Z,1.44
2023-02-18T21:07:20.012Z,1.25
2023-02-18T21:09:47.071Z,1.27
2023-02-18T21:12:13.955Z,1.33
2023-02-18T21:14:41.028Z,1.45
2023-02-18T21:17:09.465Z,1.26
2023-02-18T21:19:36.595Z,0.99
2023-02-18T21:22:03.429Z,0.82
2023-02-18T21:24:32.122Z,0.80
2023-02-18T21:26:59.304Z,0.62
2023-02-18T21:29:26.524Z,0.50
2023-02-18T21:31:54.224Z,0.52
2023-02-18T21:34:23.177Z,0.75
2023-02-18T21:36:50.759Z,0.68
2023-02-18T21:39:17.971Z,1.02
2023-02-18T21:41:44.857Z,1.17
2023-02-18T21:44:12.213Z,1.27
2023-02-18T21:46:40.699Z,1.22
2023-02-18T21:49:12.687Z,1.36
2023-02-18T21:51:57.002Z,1.49
2023-02-18T21:54:40.081Z,1.53
2023-02-18T21:57:11.434Z,1.40
2023-02-18T21:59:39.299Z,1.29
2023-02-18T22:02:08.498Z,1.12
2023-02-18T22:04:37.925Z,0.96
2023-02-18T22:07:06.408Z,0.96
2023-02-18T22:09:34.085Z,0.85
2023-02-18T22:12:03.442Z,0.75
2023-02-18T22:14:31.538Z,0.37
2023-02-18T22:16:59.761Z,0.47
2023-02-18T22:19:27.655Z,0.42
2023-02-18T22:21:56.194Z,0.54
2023-02-18T22:24:22.968Z,0.53
2023-02-18T22:26:51.217Z,0.67
2023-02-18T22:29:21.428Z,0.74
2023-02-18T22:31:53.683Z,0.87
2023-02-18T22:34:24.031Z,0.63
2023-02-18T22:36:52.018Z,0.64
2023-02-18T22:39:19.494Z,0.53
2023-02-18T22:41:47.083Z,0.37
2023-02-18T22:44:17.052Z,0.23
2023-02-18T22:46:45.197Z,0.31
2023-02-18T22:49:14.315Z,0.20
2023-02-18T22:51:43.811Z,0.21
2023-02-18T22:54:14.492Z,0.20
2023-02-18T22:56:41.745Z,0.10
2023-02-18T22:59:08.406Z,0.14
2023-02-18T23:01:38.874Z,0.08
2023-02-18T23:04:16.694Z,-0.15
2023-02-18T23:06:44.728Z,-0.27
2023-02-18T23:09:14.870Z,-0.21
2023-02-18T23:11:42.133Z,-0.04
2023-02-18T23:14:17.976Z,-0.04
2023-02-18T23:17:07.841Z,-0.04
2023-02-18T23:19:36.488Z,0.03
2023-02-18T23:22:03.930Z,0.02
2023-02-18T23:24:39.770Z,-0.03
2023-02-18T23:27:08.735Z,-0.16
2023-02-18T23:29:35.988Z,-0.04
2023-02-18T23:32:03.068Z,0.06
2023-02-18T23:34:30.001Z,-0.03
2023-02-18T23:36:56.786Z,0.01
2023-02-18T23:39:24.273Z,-0.05
2023-02-18T23:41:52.139Z,-0.11
2023-02-18T23:44:21.628Z,-0.30
2023-02-18T23:46:48.433Z,-0.19
2023-02-18T23:49:22.075Z,-0.31
2023-02-18T23:51:50.330Z,-0.25
2023-02-18T23:54:17.785Z,-0.21
2023-02-18T23:56:44.940Z,-0.24
2023-02-18T23:59:12.217Z,-0.33
